createdAt,value
2019-03-29T00:00:37.122Z,8.63
2019-03-29T00:05:37.120Z,8.63
2019-03-29T00:10:37.122Z,8.63
2019-03-29T00:15:37.136Z,8.63
2019-03-29T00:20:37.141Z,8.63
2019-03-29T00:25:37.152Z,8.63
2019-03-29T00:30:37.128Z,8.63
2019-03-29T00:35:37.124Z,8.63
2019-03-29T00:40:37.156Z,8.63
2019-03-29T00:45:37.136Z,8.69
2019-03-29T00:50:37.160Z,8.69
2019-03-29T00:55:37.140Z,8.69
2019-03-29T01:00:37.142Z,8.69
2019-03-29T01:05:37.139Z,8.63
2019-03-29T01:10:37.166Z,8.63
2019-03-29T01:15:37.152Z,8.63
2019-03-29T01:20:37.157Z,8.63
2019-03-29T01:25:37.186Z,8.69
2019-03-29T01:30:37.153Z,8.69
2019-03-29T01:35:37.156Z,8.63
2019-03-29T01:40:37.182Z,8.63
2019-03-29T01:45:37.160Z,8.63
2019-03-29T01:50:37.167Z,8.56
2019-03-29T01:55:37.186Z,8.5
2019-03-29T02:00:37.183Z,8.5
2019-03-29T02:05:37.170Z,8.5
2019-03-29T02:10:37.188Z,8.5
2019-03-29T02:15:37.880Z,8.5
2019-03-29T02:20:37.194Z,8.5
2019-03-29T02:25:37.220Z,8.44
2019-03-29T02:30:37.213Z,8.44
2019-03-29T02:35:38.376Z,8.44
2019-03-29T02:40:37.202Z,8.44
2019-03-29T02:45:37.251Z,8.38
2019-03-29T02:50:37.292Z,8.38
2019-03-29T02:55:37.199Z,8.38
2019-03-29T03:00:37.233Z,8.38
2019-03-29T03:05:37.241Z,8.38
2019-03-29T03:10:37.212Z,8.38
2019-03-29T03:15:37.240Z,8.38
2019-03-29T03:20:37.253Z,8.44
2019-03-29T03:25:37.284Z,8.5
2019-03-29T03:30:37.276Z,8.5
2019-03-29T03:35:37.253Z,8.56
2019-03-29T03:40:37.265Z,8.5
2019-03-29T03:45:37.255Z,8.56
2019-03-29T03:50:37.260Z,8.5
2019-03-29T03:55:37.232Z,8.5
2019-03-29T04:00:37.262Z,8.5
2019-03-29T04:05:37.236Z,8.5
2019-03-29T04:10:37.239Z,8.44
2019-03-29T04:15:37.266Z,8.44
2019-03-29T04:20:37.249Z,8.44
2019-03-29T04:25:37.216Z,8.44
2019-03-29T04:30:37.259Z,8.44
2019-03-29T04:35:37.300Z,8.38
2019-03-29T04:40:37.256Z,8.38
2019-03-29T04:45:37.282Z,8.31
2019-03-29T04:50:37.279Z,8.31
2019-03-29T04:55:37.290Z,8.31
2019-03-29T05:00:37.260Z,8.31
2019-03-29T05:05:37.306Z,8.31
2019-03-29T05:10:37.290Z,8.31
2019-03-29T05:15:37.291Z,8.31
2019-03-29T05:20:37.242Z,8.25
2019-03-29T05:25:37.307Z,8.19
2019-03-29T05:30:37.301Z,8.19
2019-03-29T05:35:37.298Z,8.25
2019-03-29T05:40:37.310Z,8.25
2019-03-29T05:45:37.322Z,8.31
2019-03-29T05:50:37.270Z,8.38
2019-03-29T05:55:37.299Z,8.38
2019-03-29T06:00:37.321Z,8.44
2019-03-29T06:05:37.337Z,8.44
2019-03-29T06:10:48.138Z,8.69
2019-03-29T06:15:37.322Z,9.25
2019-03-29T06:20:37.344Z,9.25
2019-03-29T06:25:37.346Z,8.88
2019-03-29T06:30:37.356Z,8.81
2019-03-29T06:35:37.331Z,8.75
2019-03-29T06:40:37.330Z,8.75
2019-03-29T06:45:47.070Z,8.88
2019-03-29T06:50:37.393Z,8.94
2019-03-29T06:55:37.332Z,9
2019-03-29T07:00:37.308Z,9.06
2019-03-29T07:05:37.318Z,9.19
2019-03-29T07:10:37.386Z,9.25
2019-03-29T07:15:37.317Z,9.38
2019-03-29T07:20:37.344Z,9.44
2019-03-29T07:25:37.350Z,9.63
2019-03-29T07:30:37.326Z,9.63
2019-03-29T07:35:37.322Z,9.69
2019-03-29T07:40:37.351Z,9.75
2019-03-29T07:45:37.316Z,9.94
2019-03-29T07:50:37.342Z,10.13
2019-03-29T07:55:37.679Z,10.31
2019-03-29T08:00:37.350Z,10.38
2019-03-29T08:05:37.342Z,10.5
2019-03-29T08:10:37.359Z,10.63
2019-03-29T08:15:37.333Z,10.69
2019-03-29T08:20:41.887Z,10.81
2019-03-29T08:25:37.373Z,10.94
2019-03-29T08:30:37.341Z,10.94
2019-03-29T08:35:37.359Z,11
2019-03-29T08:40:37.499Z,11.13
2019-03-29T08:45:37.353Z,11.38
2019-03-29T08:50:37.372Z,11.5
2019-03-29T08:55:45.394Z,11.56
2019-03-29T09:00:37.358Z,11.63
2019-03-29T09:05:39.094Z,11.75
2019-03-29T09:10:37.377Z,11.81
2019-03-29T09:15:37.376Z,11.94
2019-03-29T09:20:37.363Z,12.19
2019-03-29T09:25:40.242Z,12.31
2019-03-29T09:30:37.373Z,12.38
2019-03-29T09:35:37.372Z,12.44
2019-03-29T09:40:37.401Z,12.56
2019-03-29T09:45:39.662Z,12.63
2019-03-29T09:50:37.380Z,12.69
2019-03-29T09:55:37.411Z,12.69
2019-03-29T10:00:37.386Z,12.69
2019-03-29T10:05:37.386Z,12.44
2019-03-29T10:10:37.384Z,12.19
2019-03-29T10:15:37.391Z,12.38
2019-03-29T10:20:37.520Z,12.5
2019-03-29T10:25:37.457Z,12.81
2019-03-29T10:30:37.435Z,12.88
2019-03-29T10:35:50.556Z,13.06
2019-03-29T10:40:37.438Z,12.88
2019-03-29T10:45:40.238Z,13.06
2019-03-29T10:50:37.398Z,13.31
2019-03-29T10:55:37.430Z,13.63
2019-03-29T11:00:37.450Z,13.69
2019-03-29T11:05:37.404Z,14.06
2019-03-29T11:10:37.446Z,14.25
2019-03-29T11:15:37.417Z,14.38
2019-03-29T11:20:37.453Z,14.25
2019-03-29T11:25:37.451Z,13.94
2019-03-29T11:30:42.317Z,14.13
2019-03-29T11:35:37.418Z,14.31
2019-03-29T11:40:37.462Z,14.38
2019-03-29T11:45:37.429Z,14
2019-03-29T11:50:37.425Z,13.94
2019-03-29T11:55:37.451Z,13.56
2019-03-29T12:00:37.438Z,13.25
2019-03-29T12:05:37.435Z,13.88
2019-03-29T12:10:37.486Z,14.19
2019-03-29T12:15:37.441Z,14.88
2019-03-29T12:20:37.507Z,15.81
2019-03-29T12:25:37.496Z,16
2019-03-29T12:30:37.654Z,15.5
2019-03-29T12:35:37.637Z,15
2019-03-29T12:40:37.492Z,14.88
2019-03-29T12:45:37.453Z,14.38
2019-03-29T12:50:37.452Z,14
2019-03-29T12:55:37.517Z,14
2019-03-29T13:00:37.483Z,13.94
2019-03-29T13:05:37.488Z,13.75
2019-03-29T13:10:37.465Z,13.63
2019-03-29T13:15:37.503Z,13.56
2019-03-29T13:20:37.474Z,13.69
2019-03-29T13:25:37.476Z,13.69
2019-03-29T13:30:37.479Z,13.44
2019-03-29T13:35:37.475Z,13.56
2019-03-29T13:40:37.490Z,13.69
2019-03-29T13:45:37.512Z,13.44
2019-03-29T13:50:37.561Z,13.44
2019-03-29T13:55:37.481Z,13.31
2019-03-29T14:00:37.497Z,13.19
2019-03-29T14:05:37.486Z,13.13
2019-03-29T14:10:37.489Z,13
2019-03-29T14:15:37.550Z,13.06
2019-03-29T14:20:37.493Z,13.13
2019-03-29T14:25:37.526Z,13.31
2019-03-29T14:30:37.517Z,13.25
2019-03-29T14:35:37.506Z,13.25
2019-03-29T14:40:37.507Z,13.31
2019-03-29T14:45:37.527Z,13.44
2019-03-29T14:50:37.509Z,13.44
2019-03-29T14:55:37.508Z,13.38
2019-03-29T15:00:37.554Z,13.31
2019-03-29T15:05:37.513Z,13.44
2019-03-29T15:10:37.524Z,13.44
2019-03-29T15:15:37.533Z,13.44
2019-03-29T15:20:37.525Z,13.44
2019-03-29T15:25:40.406Z,13.38
2019-03-29T15:30:37.562Z,13.25
2019-03-29T15:35:37.547Z,13.19
2019-03-29T15:40:37.574Z,13.13
2019-03-29T15:45:37.558Z,13.25
2019-03-29T15:50:37.538Z,13.25
2019-03-29T15:55:37.553Z,13.25
2019-03-29T16:00:37.563Z,13.19
2019-03-29T16:05:37.547Z,12.88
2019-03-29T16:10:37.549Z,12.88
2019-03-29T16:15:38.424Z,12.81
2019-03-29T16:20:37.558Z,12.81
2019-03-29T16:25:37.588Z,12.75
2019-03-29T16:30:37.609Z,12.75
2019-03-29T16:35:37.568Z,12.81
2019-03-29T16:40:37.567Z,12.75
2019-03-29T16:45:47.539Z,12.69
2019-03-29T16:50:37.572Z,12.63
2019-03-29T16:55:37.594Z,12.63
2019-03-29T17:00:37.624Z,12.5
2019-03-29T17:05:37.583Z,12.31
2019-03-29T17:10:37.590Z,12.25
2019-03-29T17:15:37.605Z,12.19
2019-03-29T17:20:37.609Z,12.13
2019-03-29T17:25:37.596Z,12
2019-03-29T17:30:37.657Z,11.94
2019-03-29T17:35:37.593Z,11.88
2019-03-29T17:40:37.595Z,11.75
2019-03-29T17:45:37.633Z,11.56
2019-03-29T17:50:37.615Z,11.5
2019-03-29T17:55:37.603Z,11.44
2019-03-29T18:00:37.643Z,11.25
2019-03-29T18:05:37.612Z,11
2019-03-29T18:10:37.619Z,10.88
2019-03-29T18:15:37.661Z,10.75
2019-03-29T18:20:37.621Z,10.69
2019-03-29T18:25:37.627Z,10.38
2019-03-29T18:30:37.650Z,10.25
2019-03-29T18:35:37.630Z,10.19
2019-03-29T18:40:37.683Z,10.19
2019-03-29T18:45:41.337Z,10.06
2019-03-29T18:50:37.634Z,10.13
2019-03-29T18:55:37.637Z,10.13
2019-03-29T19:00:37.663Z,9.94
2019-03-29T19:05:37.652Z,10
2019-03-29T19:10:37.679Z,10
2019-03-29T19:15:37.683Z,9.94
2019-03-29T19:20:37.682Z,9.69
2019-03-29T19:25:37.656Z,9.38
2019-03-29T19:30:37.666Z,9.38
2019-03-29T19:35:37.677Z,9.38
2019-03-29T19:40:37.663Z,9.31
2019-03-29T19:45:37.690Z,9.19
2019-03-29T19:50:37.673Z,9.19
2019-03-29T19:55:37.677Z,9.06
2019-03-29T20:00:37.724Z,8.88
2019-03-29T20:05:37.675Z,8.56
2019-03-29T20:10:37.699Z,8.56
2019-03-29T20:15:37.798Z,8.63
2019-03-29T20:20:37.684Z,8.63
2019-03-29T20:25:37.699Z,8.69
2019-03-29T20:30:37.714Z,8.56
2019-03-29T20:35:37.692Z,8.56
2019-03-29T20:40:37.702Z,8.56
2019-03-29T20:45:37.713Z,8.38
2019-03-29T20:50:37.700Z,8.25
2019-03-29T20:55:37.709Z,8.19
2019-03-29T21:00:37.735Z,8.13
2019-03-29T21:05:37.710Z,7.94
2019-03-29T21:10:37.712Z,7.94
2019-03-29T21:15:37.738Z,7.81
2019-03-29T21:20:37.718Z,7.69
2019-03-29T21:25:37.732Z,7.56
2019-03-29T21:30:37.762Z,7.5
2019-03-29T21:35:37.722Z,7.56
2019-03-29T21:40:37.737Z,7.63
2019-03-29T21:45:37.766Z,7.69
2019-03-29T21:50:37.742Z,7.56
2019-03-29T21:55:37.736Z,7.38
2019-03-29T22:00:37.785Z,7.25
2019-03-29T22:05:37.747Z,6.94
2019-03-29T22:10:37.744Z,6.81
2019-03-29T22:15:37.767Z,6.81
2019-03-29T22:20:37.831Z,6.69
2019-03-29T22:25:37.757Z,6.75
2019-03-29T22:30:37.803Z,6.63
2019-03-29T22:35:37.767Z,6.63
2019-03-29T22:40:37.834Z,6.69
2019-03-29T22:45:37.787Z,6.69
2019-03-29T22:50:37.767Z,6.5
2019-03-29T22:55:37.776Z,6.38
2019-03-29T23:00:37.800Z,6.25
2019-03-29T23:05:37.771Z,6
2019-03-29T23:10:37.798Z,5.94
2019-03-29T23:15:37.785Z,5.94
2019-03-29T23:20:37.785Z,6.06
2019-03-29T23:25:37.796Z,6
2019-03-29T23:30:37.827Z,6.06
2019-03-29T23:35:37.797Z,6
2019-03-29T23:40:37.793Z,5.94
2019-03-29T23:45:37.864Z,5.94
2019-03-29T23:50:37.799Z,5.88
2019-03-29T23:55:37.800Z,5.81
